Flight Track Log - Related Links

Times and Time Zones

All times are in EDT time to prevent confusion due to time zone crossing. See the CSN6873 flight status page for this flight to view local times or setup timezone preferences in your user account.


Time Position Orientation Groundspeed Altitude Reporting Facility
EDT Latitude Longitude Course Direction KTS MPH feet Rate Location/Type
Sun 08:41:00 PM 43.8321 87.3087 238° Southwest  Level Estimated
Sun 08:42:00 PM 43.7569 87.1435 238° Southwest  Level Estimated
Sun 08:43:00 PM 43.6814 86.9788 238° Southwest  Level Estimated
Sun 08:44:00 PM 43.6057 86.8145 238° Southwest  Level Estimated
Sun 08:45:00 PM 43.5298 86.6506 237° Southwest  Level Estimated
Sun 08:46:00 PM 43.4536 86.4871 237° Southwest  Level Estimated
Sun 08:47:00 PM 43.3772 86.3240 237° Southwest  Level Estimated
Sun 08:48:00 PM 43.3006 86.1613 237° Southwest  Level Estimated
Sun 08:49:00 PM 43.2237 85.9991 237° Southwest  Level Estimated
Sun 08:50:00 PM 43.1466 85.8372 237° Southwest  Level Estimated
Sun 08:51:00 PM 43.0693 85.6758 237° Southwest  Level Estimated
Sun 08:52:00 PM 42.9917 85.5147 237° Southwest  Level Estimated
Sun 08:53:00 PM 42.9140 85.3541 237° Southwest  Level Estimated
Sun 08:54:00 PM 42.8360 85.1939 236° Southwest  Level Estimated
Sun 08:55:00 PM 42.7577 85.0341 236° Southwest  Level Estimated
Sun 08:56:00 PM 42.6793 84.8747 236° Southwest  Level Estimated
Sun 08:57:00 PM 42.6006 84.7157 236° Southwest  Level Estimated
Sun 08:58:00 PM 42.5218 84.5571 236° Southwest  Level Estimated
Sun 08:59:00 PM 42.4427 84.3988 236° Southwest  Level Estimated
Sun 09:00:00 PM 42.3633 84.2410 236° Southwest  Level Estimated
Sun 09:01:00 PM 42.2838 84.0836 236° Southwest  Level Estimated

Login

Don't have an account? Register now (free) for customized features, flight alerts, and more!